Terminal Aerodrome Forecast
Issued by NWS Portland, OR

Home | Current Version | Previous Version | Text Only | Print | Product List | Glossary On
Versions: 1 2 3 4 5 6 7 8 9 10 11 12 13 14 15 16 17 18 19 20 21 22 23 24 25 26 27 28 29
672
FTUS46 KPQR 241130
TAFSLE
TAF
KSLE 241130Z 2412/2512 33004KT P6SM SKC
     FM242000 01010KT P6SM SKC
     FM250400 36004KT P6SM SKC=

USA.gov is the U.S. government's official web portal to all federal, state and local government web resources and services.